Time;durP1;ratioP1;P1;durP2;ratioP2;P2;SDS_P1;SDS_P2;PMS_P1;PMS_P2;Temp;Humidity;BMP_temperature;BMP_pressure;BME280_temperature;BME280_humidity;BME280_pressure;Samples;Min_cycle;Max_cycle;Signal;HPM_P1;HPM_P2
2022/08/03 00:02:12;;;;;;;3.90;3.30;;;;;;;;;;5079121;28;20166;-55
2022/08/03 00:04:38;;;;;;;3.63;3.27;;;;;;;;;;5101035;28;20495;-54
2022/08/03 00:07:04;;;;;;;2.80;2.50;;;;;;;;;;5088243;27;20599;-54
2022/08/03 00:09:30;;;;;;;3.20;2.73;;;;;;;;;;5097636;28;20686;-54
2022/08/03 00:11:56;;;;;;;3.37;2.90;;;;;;;;;;5072819;27;20257;-55
2022/08/03 00:14:21;;;;;;;3.87;3.33;;;;;;;;;;5093580;28;20511;-54
2022/08/03 00:16:47;;;;;;;3.13;2.67;;;;;;;;;;5103557;28;20811;-54
2022/08/03 00:19:13;;;;;;;3.20;2.90;;;;;;;;;;5099916;28;20549;-54
2022/08/03 00:21:40;;;;;;;3.23;2.93;;;;;;;;;;5090482;28;20587;-54
2022/08/03 00:24:06;;;;;;;4.00;3.60;;;;;;;;;;5079972;28;20427;-54
2022/08/03 00:26:32;;;;;;;3.10;2.80;;;;;;;;;;5090104;28;20471;-55
2022/08/03 00:28:58;;;;;;;3.20;2.93;;;;;;;;;;5075006;28;20435;-54
2022/08/03 00:31:24;;;;;;;5.47;3.30;;;;;;;;;;5101043;28;20178;-55
2022/08/03 00:33:50;;;;;;;3.57;3.10;;;;;;;;;;5069685;28;20438;-56
2022/08/03 00:36:16;;;;;;;10.70;3.37;;;;;;;;;;5100643;28;20479;-54
2022/08/03 00:38:42;;;;;;;4.27;2.87;;;;;;;;;;5077869;28;20536;-54
2022/08/03 00:41:08;;;;;;;3.70;2.70;;;;;;;;;;5105966;28;20785;-54
2022/08/03 00:43:33;;;;;;;3.90;3.50;;;;;;;;;;5098359;28;20178;-54
2022/08/03 00:45:59;;;;;;;3.97;3.30;;;;;;;;;;5104813;28;20309;-57
2022/08/03 00:48:25;;;;;;;3.13;2.80;;;;;;;;;;5073638;27;20309;-54
2022/08/03 00:50:51;;;;;;;4.13;3.30;;;;;;;;;;5110574;27;20937;-54
2022/08/03 00:53:17;;;;;;;4.20;2.70;;;;;;;;;;5075294;27;20181;-55
2022/08/03 00:55:43;;;;;;;4.00;2.67;;;;;;;;;;5083232;28;20174;-55
2022/08/03 00:58:10;;;;;;;3.30;3.00;;;;;;;;;;5066759;27;20489;-56
2022/08/03 01:00:39;;;;;;;2.90;2.70;;;;;;;;;;5089838;28;20444;-54
2022/08/03 01:03:07;;;;;;;4.70;3.23;;;;;;;;;;5100179;27;20423;-56
2022/08/03 01:05:36;;;;;;;4.53;3.17;;;;;;;;;;5100458;27;20436;-54
2022/08/03 01:08:06;;;;;;;3.00;2.70;;;;;;;;;;5067135;27;20473;-54
2022/08/03 01:10:53;;;;;;;2.80;2.50;;;;;;;;;;5080915;28;20436;-55
2022/08/03 01:13:31;;;;;;;3.40;3.10;;;;;;;;;;5073898;28;20431;-53
2022/08/03 01:16:02;;;;;;;2.90;2.60;;;;;;;;;;5089717;27;21299;-54
2022/08/03 01:18:34;;;;;;;4.13;2.83;;;;;;;;;;5084732;28;20474;-54
2022/08/03 01:21:00;;;;;;;2.43;2.23;;;;;;;;;;5071823;28;20535;-54
2022/08/03 01:23:45;;;;;;;4.70;2.90;;;;;;;;;;5080051;27;21368;-54
2022/08/03 01:26:13;;;;;;;3.40;3.10;;;;;;;;;;5088912;27;20431;-54
2022/08/03 01:28:47;;;;;;;4.50;3.60;;;;;;;;;;5104510;27;20505;-53
2022/08/03 01:31:13;;;;;;;4.40;3.23;;;;;;;;;;5062674;28;21148;-53
2022/08/03 01:33:40;;;;;;;4.10;3.30;;;;;;;;;;5079540;28;20439;-54
2022/08/03 01:36:12;;;;;;;4.27;2.87;;;;;;;;;;5072713;27;20767;-53
2022/08/03 01:38:41;;;;;;;3.53;3.23;;;;;;;;;;5088613;28;20466;-53
2022/08/03 01:41:07;;;;;;;3.90;3.53;;;;;;;;;;5087476;28;21444;-55
2022/08/03 01:43:33;;;;;;;4.30;3.20;;;;;;;;;;5093433;27;20431;-54
2022/08/03 01:45:59;;;;;;;4.10;3.20;;;;;;;;;;5083884;28;20428;-55
2022/08/03 01:48:25;;;;;;;4.03;3.40;;;;;;;;;;5081970;28;20943;-54
2022/08/03 01:50:51;;;;;;;4.90;3.07;;;;;;;;;;5083371;28;20491;-54
2022/08/03 01:53:17;;;;;;;3.77;3.37;;;;;;;;;;5087059;28;20443;-56
2022/08/03 01:55:44;;;;;;;3.67;3.13;;;;;;;;;;5095750;27;20485;-54
2022/08/03 01:58:10;;;;;;;4.50;3.60;;;;;;;;;;5083669;27;20534;-56
2022/08/03 02:00:36;;;;;;;12.43;3.00;;;;;;;;;;5049571;28;20459;-54
2022/08/03 02:03:03;;;;;;;2.90;2.60;;;;;;;;;;5099173;28;20910;-53
2022/08/03 02:05:29;;;;;;;3.23;2.93;;;;;;;;;;5042458;28;20442;-54
2022/08/03 02:07:55;;;;;;;4.57;3.53;;;;;;;;;;5097953;28;20471;-54
2022/08/03 02:10:21;;;;;;;4.20;3.10;;;;;;;;;;5059296;28;20452;-54
2022/08/03 02:12:47;;;;;;;4.70;3.57;;;;;;;;;;5103408;27;20192;-55
2022/08/03 02:15:14;;;;;;;3.43;3.03;;;;;;;;;;5081015;27;21387;-53
2022/08/03 02:17:40;;;;;;;3.47;3.00;;;;;;;;;;5085907;28;20500;-54
2022/08/03 02:20:11;;;;;;;4.20;3.80;;;;;;;;;;5081980;27;21240;-54
2022/08/03 02:22:38;;;;;;;3.93;3.50;;;;;;;;;;5098931;27;20428;-53
2022/08/03 02:25:04;;;;;;;4.87;3.20;;;;;;;;;;5099025;27;20726;-54
2022/08/03 02:27:30;;;;;;;3.57;3.13;;;;;;;;;;5103556;28;20502;-55
2022/08/03 02:29:58;;;;;;;3.43;3.13;;;;;;;;;;5051727;28;22047;-53
2022/08/03 02:32:25;;;;;;;4.97;3.80;;;;;;;;;;5087117;28;20213;-53
2022/08/03 02:34:51;;;;;;;10.93;3.60;;;;;;;;;;5079781;27;20799;-54
2022/08/03 02:37:17;;;;;;;3.80;3.30;;;;;;;;;;5111525;27;20442;-59
2022/08/03 02:39:43;;;;;;;4.20;3.63;;;;;;;;;;5060856;28;20529;-55
2022/08/03 02:42:10;;;;;;;4.30;3.87;;;;;;;;;;5072986;27;20478;-53
2022/08/03 02:44:36;;;;;;;5.23;3.40;;;;;;;;;;5083669;28;20439;-53
2022/08/03 02:47:03;;;;;;;3.33;3.03;;;;;;;;;;5104595;27;20522;-54
2022/08/03 02:49:29;;;;;;;3.57;2.87;;;;;;;;;;5073750;28;20612;-54
2022/08/03 02:51:55;;;;;;;3.13;2.70;;;;;;;;;;5094264;27;20432;-54
2022/08/03 02:54:21;;;;;;;3.57;3.27;;;;;;;;;;5085072;28;20576;-54
2022/08/03 02:56:47;;;;;;;3.43;3.00;;;;;;;;;;5077285;28;20446;-54
2022/08/03 02:59:13;;;;;;;3.20;2.90;;;;;;;;;;5076549;27;20436;-55
2022/08/03 03:01:39;;;;;;;7.70;6.13;;;;;;;;;;5062422;27;20428;-55
2022/08/03 03:04:05;;;;;;;4.10;3.60;;;;;;;;;;5091346;27;20432;-55
2022/08/03 03:06:31;;;;;;;3.67;3.33;;;;;;;;;;5105750;27;20174;-56
2022/08/03 03:08:57;;;;;;;4.70;3.90;;;;;;;;;;5087903;28;20453;-55
2022/08/03 03:11:23;;;;;;;4.37;3.97;;;;;;;;;;5072961;28;20178;-54
2022/08/03 03:13:49;;;;;;;3.90;3.53;;;;;;;;;;5091023;27;20518;-55
2022/08/03 03:16:15;;;;;;;4.17;3.87;;;;;;;;;;5101374;27;20435;-56
2022/08/03 03:18:43;;;;;;;4.03;3.40;;;;;;;;;;5083648;28;20443;-57
2022/08/03 03:21:09;;;;;;;4.13;3.40;;;;;;;;;;5078704;27;20439;-54
2022/08/03 03:23:36;;;;;;;4.07;3.17;;;;;;;;;;5092124;28;20956;-56
2022/08/03 03:26:02;;;;;;;4.07;3.77;;;;;;;;;;5076300;27;20460;-56
2022/08/03 03:28:28;;;;;;;4.50;3.20;;;;;;;;;;5103884;27;20484;-56
2022/08/03 03:30:54;;;;;;;5.73;3.93;;;;;;;;;;5063699;27;20452;-56
2022/08/03 03:33:23;;;;;;;3.97;3.60;;;;;;;;;;5106848;27;20432;-56
2022/08/03 03:35:50;;;;;;;3.70;3.33;;;;;;;;;;5105228;27;20457;-56
2022/08/03 03:38:16;;;;;;;3.83;3.43;;;;;;;;;;5073040;27;21023;-56
2022/08/03 03:40:42;;;;;;;4.10;3.63;;;;;;;;;;5058693;27;21060;-55
2022/08/03 03:43:09;;;;;;;4.93;3.73;;;;;;;;;;5084953;27;20861;-57
2022/08/03 03:45:35;;;;;;;4.15;3.63;;;;;;;;;;5100812;27;20495;-57
2022/08/03 03:48:01;;;;;;;4.10;3.70;;;;;;;;;;5099307;27;20218;-55
2022/08/03 03:50:27;;;;;;;5.90;4.57;;;;;;;;;;5102371;27;20856;-57
2022/08/03 03:52:54;;;;;;;4.80;3.83;;;;;;;;;;5095314;28;20432;-56
2022/08/03 03:55:48;;;;;;;4.60;4.13;;;;;;;;;;5108046;27;20847;-57
2022/08/03 03:58:14;;;;;;;5.63;3.53;;;;;;;;;;5088262;27;20432;-55
2022/08/03 04:00:41;;;;;;;4.03;3.63;;;;;;;;;;5105789;27;20718;-55
2022/08/03 04:03:08;;;;;;;5.00;3.87;;;;;;;;;;5064489;27;20450;-56
2022/08/03 04:11:19;;;;;;;5.23;3.73;;;;;;;;;;5099436;27;20439;-54
2022/08/03 04:13:55;;;;;;;4.40;3.53;;;;;;;;;;5071882;28;20435;-56
2022/08/03 04:16:22;;;;;;;4.30;3.70;;;;;;;;;;5070160;28;20420;-56
2022/08/03 04:18:50;;;;;;;4.40;4.00;;;;;;;;;;5061785;28;20423;-56
2022/08/03 04:21:16;;;;;;;7.07;4.37;;;;;;;;;;5103659;27;20449;-55
2022/08/03 04:23:44;;;;;;;4.33;3.93;;;;;;;;;;5101254;28;20430;-57
2022/08/03 04:26:11;;;;;;;4.93;4.50;;;;;;;;;;5093118;28;20474;-55
2022/08/03 04:28:37;;;;;;;5.50;4.57;;;;;;;;;;5060861;28;20467;-57
2022/08/03 04:31:03;;;;;;;5.00;4.43;;;;;;;;;;5063384;28;20523;-56
2022/08/03 04:33:30;;;;;;;5.03;4.13;;;;;;;;;;5054239;28;20601;-56
2022/08/03 04:35:57;;;;;;;5.37;4.87;;;;;;;;;;5104415;28;20437;-54
2022/08/03 04:38:24;;;;;;;5.70;4.50;;;;;;;;;;5058932;28;20789;-59
2022/08/03 04:40:51;;;;;;;6.77;5.17;;;;;;;;;;5109030;28;20439;-56
2022/08/03 04:43:18;;;;;;;7.60;5.20;;;;;;;;;;5075719;28;20456;-56
2022/08/03 04:45:45;;;;;;;6.03;5.43;;;;;;;;;;5072545;28;20436;-55
2022/08/03 04:48:18;;;;;;;5.80;5.20;;;;;;;;;;5071814;28;20463;-56
2022/08/03 04:50:45;;;;;;;6.10;5.60;;;;;;;;;;5092279;28;20451;-54
2022/08/03 04:53:17;;;;;;;8.67;5.07;;;;;;;;;;5066839;28;20523;-56
2022/08/03 04:55:44;;;;;;;5.70;5.20;;;;;;;;;;5102863;28;20443;-56
2022/08/03 04:58:11;;;;;;;6.00;5.20;;;;;;;;;;5079906;28;20485;-55
2022/08/03 05:00:38;;;;;;;5.83;4.50;;;;;;;;;;5109019;28;20425;-56
2022/08/03 05:03:04;;;;;;;5.50;4.57;;;;;;;;;;5083039;28;20586;-57
2022/08/03 05:05:30;;;;;;;5.03;4.53;;;;;;;;;;5084318;28;20476;-55
2022/08/03 05:07:56;;;;;;;5.37;4.67;;;;;;;;;;5049902;28;20482;-55
2022/08/03 05:10:22;;;;;;;5.37;4.53;;;;;;;;;;5102581;28;20522;-57
2022/08/03 05:12:50;;;;;;;7.00;5.30;;;;;;;;;;5099837;28;20223;-59
2022/08/03 05:15:22;;;;;;;5.07;4.57;;;;;;;;;;5100240;28;20805;-57
2022/08/03 05:17:49;;;;;;;6.67;5.47;;;;;;;;;;5070145;28;21287;-56
2022/08/03 05:20:15;;;;;;;5.40;4.90;;;;;;;;;;5090673;28;20830;-55
2022/08/03 05:22:41;;;;;;;6.10;4.87;;;;;;;;;;5056904;28;20197;-55
2022/08/03 05:25:07;;;;;;;6.07;4.60;;;;;;;;;;5102183;28;20169;-57
2022/08/03 05:27:33;;;;;;;5.70;5.10;;;;;;;;;;5082217;28;21178;-56
2022/08/03 05:30:00;;;;;;;5.40;4.60;;;;;;;;;;5087829;28;20452;-56
2022/08/03 05:32:52;;;;;;;6.03;5.43;;;;;;;;;;5053425;28;20439;-56
2022/08/03 05:35:18;;;;;;;5.87;5.10;;;;;;;;;;5084821;28;20427;-56
2022/08/03 05:37:44;;;;;;;5.53;5.00;;;;;;;;;;5073345;27;21414;-56
2022/08/03 05:40:11;;;;;;;6.93;6.10;;;;;;;;;;5105732;27;20219;-57
2022/08/03 05:42:39;;;;;;;5.63;5.00;;;;;;;;;;5096565;27;21051;-57
2022/08/03 05:45:16;;;;;;;5.93;5.40;;;;;;;;;;5065944;27;20439;-58
2022/08/03 05:47:43;;;;;;;8.40;5.30;;;;;;;;;;5090975;27;20550;-56
2022/08/03 05:50:10;;;;;;;7.50;5.63;;;;;;;;;;5079024;27;20454;-56
2022/08/03 05:52:36;;;;;;;5.40;4.93;;;;;;;;;;5076800;27;20475;-56
2022/08/03 05:55:02;;;;;;;6.30;4.87;;;;;;;;;;5064008;27;20442;-57
2022/08/03 05:57:28;;;;;;;5.43;5.00;;;;;;;;;;5099204;27;20182;-57
2022/08/03 05:59:54;;;;;;;8.43;5.13;;;;;;;;;;5087016;27;21260;-57
2022/08/03 06:02:20;;;;;;;6.33;4.70;;;;;;;;;;5101083;27;20186;-57
2022/08/03 06:04:46;;;;;;;6.90;5.77;;;;;;;;;;5095558;27;20470;-53
2022/08/03 06:07:12;;;;;;;6.33;5.73;;;;;;;;;;5090080;27;20723;-57
2022/08/03 06:09:40;;;;;;;5.20;4.70;;;;;;;;;;5094323;27;20468;-58
2022/08/03 06:12:06;;;;;;;5.23;4.73;;;;;;;;;;5089534;27;20451;-58
2022/08/03 06:14:32;;;;;;;5.20;4.70;;;;;;;;;;5104462;27;20428;-57
2022/08/03 06:16:58;;;;;;;4.97;4.43;;;;;;;;;;5103103;27;20439;-57
2022/08/03 06:19:25;;;;;;;7.40;4.67;;;;;;;;;;5113315;27;20439;-57
2022/08/03 06:21:51;;;;;;;5.57;4.60;;;;;;;;;;5082806;27;20227;-57
2022/08/03 06:24:17;;;;;;;4.90;4.40;;;;;;;;;;5107930;27;20428;-57
2022/08/03 06:26:43;;;;;;;5.70;4.90;;;;;;;;;;5103853;28;20447;-58
2022/08/03 06:29:09;;;;;;;5.00;4.50;;;;;;;;;;5108535;27;20287;-57
2022/08/03 06:31:35;;;;;;;5.70;3.93;;;;;;;;;;5066130;27;20216;-58
2022/08/03 06:34:02;;;;;;;5.13;4.13;;;;;;;;;;5088947;28;20632;-57
2022/08/03 06:36:30;;;;;;;13.13;3.90;;;;;;;;;;5112202;27;20467;-57
2022/08/03 06:38:56;;;;;;;3.60;3.30;;;;;;;;;;5107181;27;20424;-57
2022/08/03 06:41:22;;;;;;;5.23;4.07;;;;;;;;;;5074592;27;20439;-57
2022/08/03 06:43:48;;;;;;;3.90;3.50;;;;;;;;;;5106786;27;20567;-57
2022/08/03 06:46:15;;;;;;;3.73;3.43;;;;;;;;;;5100701;28;20236;-57
2022/08/03 06:48:41;;;;;;;3.60;3.30;;;;;;;;;;5099149;27;20656;-58
2022/08/03 06:51:07;;;;;;;5.07;3.60;;;;;;;;;;5084006;28;20431;-58
2022/08/03 06:53:33;;;;;;;4.73;4.27;;;;;;;;;;5107213;28;20734;-57
2022/08/03 06:55:59;;;;;;;3.47;3.10;;;;;;;;;;5101225;28;20520;-58
2022/08/03 06:58:25;;;;;;;3.50;3.20;;;;;;;;;;5083624;28;20438;-57
2022/08/03 07:00:50;;;;;;;4.73;3.17;;;;;;;;;;5067210;27;20415;-58
2022/08/03 07:03:16;;;;;;;3.60;3.07;;;;;;;;;;5103067;27;20178;-57
2022/08/03 07:05:44;;;;;;;6.10;3.43;;;;;;;;;;5098639;27;20414;-57
2022/08/03 07:08:10;;;;;;;3.90;3.40;;;;;;;;;;5103739;28;20471;-57
2022/08/03 07:10:36;;;;;;;4.00;3.50;;;;;;;;;;5101530;27;20424;-57
2022/08/03 07:13:02;;;;;;;4.17;3.77;;;;;;;;;;5107917;27;20169;-58
2022/08/03 07:15:29;;;;;;;3.80;3.20;;;;;;;;;;5073535;28;21219;-56
2022/08/03 07:17:55;;;;;;;3.10;2.80;;;;;;;;;;5085096;28;20178;-58
2022/08/03 07:20:21;;;;;;;3.33;2.93;;;;;;;;;;5081042;28;21370;-58
2022/08/03 07:22:47;;;;;;;3.03;2.50;;;;;;;;;;5102344;28;20182;-57
2022/08/03 07:25:13;;;;;;;3.30;2.73;;;;;;;;;;5098260;28;20231;-56
2022/08/03 07:27:42;;;;;;;2.87;2.57;;;;;;;;;;5099069;28;20595;-56
2022/08/03 07:30:09;;;;;;;10.30;3.53;;;;;;;;;;5076716;28;20567;-56
2022/08/03 07:32:35;;;;;;;3.40;2.50;;;;;;;;;;5104580;27;20439;-56
2022/08/03 07:35:01;;;;;;;2.90;2.50;;;;;;;;;;5076558;28;20419;-57
2022/08/03 07:37:27;;;;;;;2.60;2.40;;;;;;;;;;5101119;28;20443;-56
2022/08/03 07:39:53;;;;;;;5.30;3.37;;;;;;;;;;5088535;28;21357;-56
2022/08/03 07:42:19;;;;;;;3.50;2.73;;;;;;;;;;5091392;28;21091;-56
2022/08/03 07:44:45;;;;;;;3.53;2.40;;;;;;;;;;5105513;28;20415;-56
2022/08/03 07:47:11;;;;;;;3.07;2.70;;;;;;;;;;5103134;28;20534;-55
2022/08/03 07:49:40;;;;;;;3.13;2.60;;;;;;;;;;5092727;28;20173;-56
2022/08/03 07:54:51;;;;;;;5.27;2.10;;;;;;;;;;5102728;28;21222;-57
2022/08/03 07:57:17;;;;;;;7.50;2.70;;;;;;;;;;5100522;27;20451;-56
2022/08/03 07:59:45;;;;;;;2.87;2.50;;;;;;;;;;5092386;28;20522;-56
2022/08/03 08:02:11;;;;;;;4.03;2.27;;;;;;;;;;5093031;27;20189;-56
2022/08/03 08:04:37;;;;;;;5.17;1.87;;;;;;;;;;5104573;27;20886;-58
2022/08/03 08:07:02;;;;;;;2.73;2.07;;;;;;;;;;5085865;28;20214;-56
2022/08/03 08:09:29;;;;;;;4.20;1.97;;;;;;;;;;5093775;28;20331;-57
2022/08/03 08:11:55;;;;;;;4.87;2.43;;;;;;;;;;5074476;28;20277;-56
2022/08/03 08:14:21;;;;;;;2.57;2.30;;;;;;;;;;5096293;28;20519;-56
2022/08/03 08:16:48;;;;;;;3.13;2.40;;;;;;;;;;5100458;27;20428;-56
2022/08/03 08:19:15;;;;;;;4.83;2.37;;;;;;;;;;5112659;27;20648;-56
2022/08/03 08:21:41;;;;;;;3.60;2.40;;;;;;;;;;5071460;28;20464;-57
2022/08/03 08:24:07;;;;;;;3.73;1.90;;;;;;;;;;5104618;28;20819;-58
2022/08/03 08:26:33;;;;;;;2.40;2.00;;;;;;;;;;5067627;28;20484;-56
2022/08/03 08:28:59;;;;;;;4.30;2.00;;;;;;;;;;5110461;28;20847;-56
2022/08/03 08:31:25;;;;;;;2.93;2.47;;;;;;;;;;5096074;28;20420;-57
2022/08/03 08:33:51;;;;;;;3.40;2.33;;;;;;;;;;5103950;28;20236;-56
2022/08/03 08:36:17;;;;;;;2.60;2.40;;;;;;;;;;5101858;28;20452;-56
2022/08/03 08:38:43;;;;;;;2.77;1.60;;;;;;;;;;5109839;28;20881;-57
2022/08/03 08:41:10;;;;;;;5.63;2.20;;;;;;;;;;5066910;28;20576;-57
2022/08/03 08:43:36;;;;;;;2.20;1.90;;;;;;;;;;5106068;28;20493;-57
2022/08/03 08:46:02;;;;;;;2.13;1.70;;;;;;;;;;5105893;28;20423;-57
2022/08/03 08:48:28;;;;;;;2.47;2.17;;;;;;;;;;5104109;28;20210;-56
2022/08/03 08:50:54;;;;;;;2.60;2.00;;;;;;;;;;5087791;28;20443;-56
2022/08/03 08:53:20;;;;;;;2.43;1.90;;;;;;;;;;5090382;28;20446;-56
2022/08/03 08:55:46;;;;;;;2.40;1.73;;;;;;;;;;5059226;28;20767;-56
2022/08/03 08:58:12;;;;;;;7.10;3.00;;;;;;;;;;5082902;28;20184;-57
2022/08/03 09:00:38;;;;;;;4.63;2.00;;;;;;;;;;5075247;28;20944;-56
2022/08/03 09:03:04;;;;;;;4.20;1.80;;;;;;;;;;5087238;28;20569;-55
2022/08/03 09:05:33;;;;;;;2.47;1.93;;;;;;;;;;5097824;28;20227;-56
2022/08/03 09:07:59;;;;;;;3.60;1.83;;;;;;;;;;5102977;28;20225;-57
2022/08/03 09:10:24;;;;;;;2.87;1.87;;;;;;;;;;5082836;28;20415;-56
2022/08/03 09:12:51;;;;;;;2.50;1.90;;;;;;;;;;5104799;28;20432;-56
2022/08/03 09:15:21;;;;;;;4.90;1.87;;;;;;;;;;5068985;27;20186;-57
2022/08/03 09:17:47;;;;;;;2.63;1.93;;;;;;;;;;5104782;28;20468;-56
2022/08/03 09:20:13;;;;;;;2.63;2.30;;;;;;;;;;5082987;27;20436;-57
2022/08/03 09:22:52;;;;;;;2.47;1.93;;;;;;;;;;5104596;28;20436;-56
2022/08/03 09:25:18;;;;;;;2.60;2.20;;;;;;;;;;5104994;27;20467;-57
2022/08/03 09:27:44;;;;;;;5.80;2.20;;;;;;;;;;5095969;28;20501;-57
2022/08/03 09:30:14;;;;;;;2.70;2.20;;;;;;;;;;5069323;27;20575;-56
2022/08/03 09:32:40;;;;;;;3.47;2.13;;;;;;;;;;5106606;27;20445;-57
2022/08/03 09:35:06;;;;;;;6.63;2.30;;;;;;;;;;5098666;27;20403;-56
2022/08/03 09:37:32;;;;;;;3.47;1.93;;;;;;;;;;5085250;28;20443;-56
2022/08/03 09:39:58;;;;;;;5.23;2.80;;;;;;;;;;5084227;27;20431;-58
2022/08/03 09:42:26;;;;;;;3.43;2.00;;;;;;;;;;5097757;28;20201;-57
2022/08/03 09:44:52;;;;;;;2.87;1.97;;;;;;;;;;5084412;27;20662;-56
2022/08/03 09:47:30;;;;;;;4.40;2.10;;;;;;;;;;5091572;28;20485;-56
2022/08/03 09:50:00;;;;;;;4.90;2.70;;;;;;;;;;5102509;27;20483;-56
2022/08/03 09:52:46;;;;;;;2.23;1.97;;;;;;;;;;5101138;28;20415;-57
2022/08/03 09:55:13;;;;;;;2.23;1.90;;;;;;;;;;5105293;27;20407;-57
2022/08/03 09:57:45;;;;;;;1.90;1.47;;;;;;;;;;5096797;27;20471;-57
2022/08/03 10:00:14;;;;;;;3.50;1.93;;;;;;;;;;5055695;28;21250;-57
2022/08/03 10:02:40;;;;;;;3.63;2.73;;;;;;;;;;5114332;27;21139;-57
2022/08/03 10:05:08;;;;;;;2.90;1.83;;;;;;;;;;5100431;28;20481;-57
2022/08/03 10:07:43;;;;;;;3.07;2.10;;;;;;;;;;5110013;27;20834;-58
2022/08/03 10:10:09;;;;;;;2.43;2.00;;;;;;;;;;5078873;28;20876;-58
2022/08/03 10:12:35;;;;;;;6.07;2.67;;;;;;;;;;5107968;28;20456;-56
2022/08/03 10:15:01;;;;;;;4.53;2.40;;;;;;;;;;5084852;28;20412;-57
2022/08/03 10:17:27;;;;;;;5.77;2.20;;;;;;;;;;5090095;28;20424;-56
2022/08/03 10:19:54;;;;;;;2.67;1.90;;;;;;;;;;5074031;27;20427;-57
2022/08/03 10:22:23;;;;;;;2.03;1.73;;;;;;;;;;5103435;28;20264;-57
2022/08/03 10:24:50;;;;;;;2.87;1.77;;;;;;;;;;5080546;27;20433;-57
2022/08/03 10:27:16;;;;;;;2.50;1.70;;;;;;;;;;5107290;28;20567;-57
2022/08/03 10:29:43;;;;;;;2.90;1.90;;;;;;;;;;5074273;28;20581;-57
2022/08/03 10:32:10;;;;;;;2.00;1.73;;;;;;;;;;5090712;28;20436;-56
2022/08/03 10:34:37;;;;;;;2.60;1.90;;;;;;;;;;5079893;27;20475;-57
2022/08/03 10:37:03;;;;;;;2.60;2.20;;;;;;;;;;5106222;27;20419;-58
2022/08/03 10:39:29;;;;;;;3.17;2.40;;;;;;;;;;5085353;27;20428;-57
2022/08/03 10:41:57;;;;;;;2.40;2.00;;;;;;;;;;5088155;28;20445;-56
2022/08/03 10:44:23;;;;;;;2.60;2.20;;;;;;;;;;5081809;28;20438;-57
2022/08/03 10:46:49;;;;;;;2.40;2.10;;;;;;;;;;5087101;28;20454;-57
2022/08/03 10:49:15;;;;;;;2.80;2.00;;;;;;;;;;5048752;28;20436;-57
2022/08/03 10:51:42;;;;;;;4.50;2.27;;;;;;;;;;5089073;28;20431;-58
2022/08/03 10:54:19;;;;;;;2.77;2.47;;;;;;;;;;5086302;28;20420;-57
2022/08/03 10:59:50;;;;;;;3.70;2.70;;;;;;;;;;5082379;27;20423;-56
2022/08/03 11:02:16;;;;;;;2.50;2.10;;;;;;;;;;5081874;28;20534;-56
2022/08/03 11:04:43;;;;;;;3.00;2.20;;;;;;;;;;5072298;28;20439;-56
2022/08/03 11:07:19;;;;;;;2.50;2.20;;;;;;;;;;5108128;28;20460;-57
2022/08/03 11:09:47;;;;;;;3.50;2.23;;;;;;;;;;5100370;28;20477;-57
2022/08/03 11:12:26;;;;;;;2.40;2.13;;;;;;;;;;5107556;27;20419;-56
2022/08/03 11:14:52;;;;;;;2.40;2.20;;;;;;;;;;5086074;27;20407;-57
2022/08/03 11:17:17;;;;;;;2.87;2.57;;;;;;;;;;5080820;28;20806;-55
2022/08/03 11:19:44;;;;;;;6.57;2.40;;;;;;;;;;5050226;28;20182;-57
2022/08/03 11:22:10;;;;;;;2.93;1.93;;;;;;;;;;5100791;28;20189;-57
2022/08/03 11:24:37;;;;;;;2.70;2.20;;;;;;;;;;5096519;28;20823;-57
2022/08/03 11:27:22;;;;;;;2.37;2.07;;;;;;;;;;5107826;28;20538;-58
2022/08/03 11:29:58;;;;;;;3.00;2.40;;;;;;;;;;5055114;27;20485;-57
2022/08/03 11:32:39;;;;;;;3.00;1.70;;;;;;;;;;5101540;28;20427;-56
2022/08/03 11:35:08;;;;;;;3.47;2.73;;;;;;;;;;5067426;27;20512;-57
2022/08/03 11:37:34;;;;;;;3.10;2.07;;;;;;;;;;5099197;27;20516;-56
2022/08/03 11:40:00;;;;;;;2.30;2.10;;;;;;;;;;5096388;27;20510;-58
2022/08/03 11:42:27;;;;;;;2.83;2.53;;;;;;;;;;5107425;28;20238;-56
2022/08/03 11:44:54;;;;;;;5.07;2.97;;;;;;;;;;5102945;28;20412;-56
2022/08/03 11:47:20;;;;;;;2.70;2.13;;;;;;;;;;5103210;28;20532;-56
2022/08/03 11:49:46;;;;;;;4.33;2.00;;;;;;;;;;5074258;28;20428;-58
2022/08/03 11:52:12;;;;;;;3.83;2.10;;;;;;;;;;5101777;27;20415;-57
2022/08/03 11:54:39;;;;;;;2.80;2.27;;;;;;;;;;5085420;28;20449;-58
2022/08/03 11:57:05;;;;;;;2.97;2.27;;;;;;;;;;5111555;27;20493;-56
2022/08/03 11:59:34;;;;;;;3.57;2.30;;;;;;;;;;5092959;28;20463;-57
2022/08/03 12:02:07;;;;;;;2.47;2.10;;;;;;;;;;5095870;28;20428;-57
2022/08/03 12:04:49;;;;;;;2.77;2.03;;;;;;;;;;5084889;28;20444;-57
2022/08/03 12:07:16;;;;;;;2.10;1.73;;;;;;;;;;5103827;27;20482;-58
2022/08/03 12:09:42;;;;;;;2.00;1.80;;;;;;;;;;5093723;27;20423;-57
2022/08/03 12:12:08;;;;;;;2.90;2.10;;;;;;;;;;5077977;28;20805;-57
2022/08/03 12:14:34;;;;;;;2.50;2.03;;;;;;;;;;5102582;28;20691;-58
2022/08/03 12:17:00;;;;;;;2.93;2.30;;;;;;;;;;5103123;27;20272;-57
2022/08/03 12:19:26;;;;;;;2.13;1.93;;;;;;;;;;5104236;28;20189;-57
2022/08/03 12:21:52;;;;;;;3.80;2.47;;;;;;;;;;5103680;28;20470;-57
2022/08/03 12:24:18;;;;;;;2.70;2.50;;;;;;;;;;5100068;27;20178;-58
2022/08/03 12:26:48;;;;;;;3.63;2.00;;;;;;;;;;5081782;27;20186;-58
2022/08/03 12:29:17;;;;;;;2.53;2.10;;;;;;;;;;5102464;27;21587;-57
2022/08/03 12:31:43;;;;;;;3.60;2.60;;;;;;;;;;5089197;28;20447;-55
2022/08/03 12:34:10;;;;;;;2.40;2.13;;;;;;;;;;5105987;28;20494;-58
2022/08/03 12:36:37;;;;;;;2.47;2.17;;;;;;;;;;5080011;28;21706;-59
2022/08/03 12:39:06;;;;;;;2.73;2.20;;;;;;;;;;5106116;28;20416;-56
2022/08/03 12:41:36;;;;;;;2.17;1.97;;;;;;;;;;5072999;28;20439;-57
2022/08/03 12:44:02;;;;;;;2.50;2.30;;;;;;;;;;5108444;28;20427;-55
2022/08/03 12:46:29;;;;;;;2.80;2.27;;;;;;;;;;5099888;27;20435;-55
2022/08/03 12:49:01;;;;;;;2.50;2.30;;;;;;;;;;5113773;27;20467;-57
2022/08/03 12:51:27;;;;;;;2.30;2.10;;;;;;;;;;5096423;28;20849;-57
2022/08/03 12:53:54;;;;;;;3.30;2.53;;;;;;;;;;5109991;28;20510;-58
2022/08/03 12:56:20;;;;;;;3.83;2.90;;;;;;;;;;5053669;28;20423;-57
2022/08/03 12:58:52;;;;;;;2.80;2.57;;;;;;;;;;5090503;28;20424;-56
2022/08/03 13:01:18;;;;;;;3.00;2.67;;;;;;;;;;5098161;27;20416;-56
2022/08/03 13:03:47;;;;;;;2.70;2.50;;;;;;;;;;5110928;27;20438;-56
2022/08/03 13:06:13;;;;;;;2.40;2.20;;;;;;;;;;5081847;27;20442;-56
2022/08/03 13:08:39;;;;;;;2.33;2.07;;;;;;;;;;5105660;28;20626;-55
2022/08/03 13:11:21;;;;;;;2.47;2.27;;;;;;;;;;5073641;27;20427;-56
2022/08/03 13:13:47;;;;;;;2.60;2.30;;;;;;;;;;5107368;27;20182;-57
2022/08/03 13:16:13;;;;;;;2.63;2.43;;;;;;;;;;5099534;28;20450;-56
2022/08/03 13:18:39;;;;;;;2.30;2.10;;;;;;;;;;5108806;27;20431;-57
2022/08/03 13:21:05;;;;;;;2.80;2.30;;;;;;;;;;5102080;27;20182;-57
2022/08/03 13:23:31;;;;;;;2.80;2.40;;;;;;;;;;5111934;27;20433;-57
2022/08/03 13:25:57;;;;;;;5.63;3.80;;;;;;;;;;5049580;28;20242;-56
2022/08/03 13:28:23;;;;;;;2.80;2.60;;;;;;;;;;5100425;27;20241;-56
2022/08/03 13:30:49;;;;;;;3.30;2.70;;;;;;;;;;5086209;28;20258;-56
2022/08/03 13:33:15;;;;;;;4.77;3.00;;;;;;;;;;5112436;27;20174;-56
2022/08/03 13:35:41;;;;;;;2.83;2.63;;;;;;;;;;5084140;27;20180;-56
2022/08/03 13:38:07;;;;;;;3.53;2.77;;;;;;;;;;5109077;27;20241;-56
2022/08/03 13:40:33;;;;;;;2.90;2.70;;;;;;;;;;5107655;27;20187;-56
2022/08/03 13:42:59;;;;;;;2.47;2.17;;;;;;;;;;5108986;27;20186;-56
2022/08/03 13:45:26;;;;;;;4.63;2.47;;;;;;;;;;5074624;27;20845;-56
2022/08/03 13:47:52;;;;;;;2.43;2.20;;;;;;;;;;5108041;28;20479;-56
2022/08/03 13:50:18;;;;;;;2.43;2.20;;;;;;;;;;5092458;28;20414;-57
2022/08/03 13:52:45;;;;;;;4.00;2.47;;;;;;;;;;5070619;28;20423;-57
2022/08/03 13:55:11;;;;;;;2.47;2.27;;;;;;;;;;5096830;27;20229;-57
2022/08/03 13:57:37;;;;;;;2.77;2.57;;;;;;;;;;5083667;27;21238;-56
2022/08/03 14:00:04;;;;;;;3.00;2.70;;;;;;;;;;5102883;28;20666;-57
2022/08/03 14:02:30;;;;;;;2.90;2.70;;;;;;;;;;5103767;27;20424;-56
2022/08/03 14:04:56;;;;;;;3.93;2.70;;;;;;;;;;5106833;28;20710;-57
2022/08/03 14:07:21;;;;;;;3.70;3.00;;;;;;;;;;5081686;27;20209;-56
2022/08/03 14:09:47;;;;;;;2.97;2.60;;;;;;;;;;5107385;27;20171;-56
2022/08/03 14:12:13;;;;;;;2.97;2.77;;;;;;;;;;5064163;28;20989;-56
2022/08/03 14:14:39;;;;;;;3.03;2.33;;;;;;;;;;5110823;27;20284;-55
2022/08/03 14:17:05;;;;;;;3.63;2.83;;;;;;;;;;5075485;28;20213;-56
2022/08/03 14:19:31;;;;;;;2.60;2.40;;;;;;;;;;5106946;28;20436;-56
2022/08/03 14:21:57;;;;;;;2.20;2.00;;;;;;;;;;5085472;28;20174;-56
2022/08/03 14:24:23;;;;;;;2.63;2.43;;;;;;;;;;5104300;27;20648;-56
2022/08/03 14:26:49;;;;;;;2.33;2.13;;;;;;;;;;5096074;28;20460;-56
2022/08/03 14:29:15;;;;;;;2.40;2.00;;;;;;;;;;5101938;27;20281;-56
2022/08/03 14:31:41;;;;;;;3.60;1.83;;;;;;;;;;5068959;27;20243;-56
2022/08/03 14:34:07;;;;;;;2.63;2.13;;;;;;;;;;5108018;27;20209;-56
2022/08/03 14:36:33;;;;;;;2.53;2.33;;;;;;;;;;5082356;27;20652;-56
2022/08/03 14:38:59;;;;;;;3.50;2.83;;;;;;;;;;5106940;27;20411;-57
2022/08/03 14:41:25;;;;;;;2.50;2.30;;;;;;;;;;5064849;28;20247;-55
2022/08/03 14:43:51;;;;;;;3.13;2.67;;;;;;;;;;5104266;27;20427;-56
2022/08/03 14:46:16;;;;;;;3.73;1.90;;;;;;;;;;5099374;28;20174;-56
2022/08/03 14:48:42;;;;;;;3.37;2.40;;;;;;;;;;5103957;27;20225;-56
2022/08/03 14:51:09;;;;;;;4.40;2.20;;;;;;;;;;5068542;27;20242;-55
2022/08/03 14:53:35;;;;;;;2.80;2.40;;;;;;;;;;5101595;27;20302;-55
2022/08/03 14:56:01;;;;;;;3.10;2.80;;;;;;;;;;5100654;27;20445;-55